createdAt,value
2023-01-25T05:42:38.603Z,101814.00
2023-01-25T05:45:09.697Z,101812.34
2023-01-25T05:47:37.283Z,101816.35
2023-01-25T05:50:04.586Z,101816.88
2023-01-25T05:52:49.274Z,101818.65
2023-01-25T05:55:16.289Z,101819.19
2023-01-25T05:57:44.077Z,101822.69
2023-01-25T06:00:11.250Z,101821.67
2023-01-25T06:02:42.721Z,101824.90
2023-01-25T06:05:15.281Z,101823.09
2023-01-25T06:07:42.092Z,101826.80
2023-01-25T06:10:09.578Z,101824.98
2023-01-25T06:12:39.951Z,101818.83
2023-01-25T06:15:08.454Z,101819.00
2023-01-25T06:17:35.753Z,101815.30
2023-01-25T06:20:15.474Z,101810.44
2023-01-25T06:22:58.301Z,101813.86
2023-01-25T06:25:27.276Z,101814.98
2023-01-25T06:27:54.751Z,101821.58
2023-01-25T06:30:21.691Z,101815.38
2023-01-25T06:32:49.869Z,101811.62
2023-01-25T06:35:16.513Z,101805.53
2023-01-25T06:37:43.523Z,101804.63
2023-01-25T06:40:10.961Z,101811.86
2023-01-25T06:42:37.932Z,101818.05
2023-01-25T06:45:05.861Z,101816.08
2023-01-25T06:47:32.521Z,101814.20
2023-01-25T06:49:59.937Z,101809.32
2023-01-25T06:52:26.779Z,101809.02
2023-01-25T06:54:53.531Z,101811.55
2023-01-25T06:57:20.377Z,101809.95
2023-01-25T06:59:47.218Z,101807.16
2023-01-25T07:02:15.345Z,101803.55
2023-01-25T07:04:45.296Z,101809.57
2023-01-25T07:07:12.137Z,101809.27
2023-01-25T07:09:38.840Z,101799.02
2023-01-25T07:12:06.126Z,101801.12
2023-01-25T07:14:33.302Z,101804.83
2023-01-25T07:17:02.965Z,101806.77
2023-01-25T07:19:30.730Z,101805.08
2023-01-25T07:21:57.544Z,101800.85
2023-01-25T07:24:26.482Z,101803.45
2023-01-25T07:26:53.338Z,101801.39
2023-01-25T07:29:21.211Z,101797.64
2023-01-25T07:31:48.439Z,101796.20
2023-01-25T07:34:16.484Z,101795.20
2023-01-25T07:36:44.362Z,101794.07
2023-01-25T07:39:11.406Z,101791.69
2023-01-25T07:41:39.315Z,101786.70
2023-01-25T07:44:11.315Z,101786.90
2023-01-25T07:46:44.846Z,101789.46
2023-01-25T07:49:11.700Z,101789.91
2023-01-25T07:51:42.453Z,101786.89
2023-01-25T07:54:10.026Z,101785.02
2023-01-25T07:56:37.820Z,101784.71
2023-01-25T07:59:09.373Z,101787.44
2023-01-25T08:01:36.954Z,101788.23
2023-01-25T08:04:09.122Z,101787.45
2023-01-25T08:06:38.690Z,101785.25
2023-01-25T08:09:13.839Z,101786.06
2023-01-25T08:11:41.901Z,101781.77
2023-01-25T08:14:09.017Z,101781.27
2023-01-25T08:16:36.617Z,101785.31
2023-01-25T08:19:03.603Z,101786.08
2023-01-25T08:21:35.221Z,101787.60
2023-01-25T08:24:04.695Z,101786.32
2023-01-25T08:26:33.605Z,101786.76
2023-01-25T08:29:01.106Z,101784.15
2023-01-25T08:31:30.676Z,101786.31
2023-01-25T08:33:59.157Z,101785.58
2023-01-25T08:36:27.447Z,101780.98
2023-01-25T08:39:00.355Z,101780.00
2023-01-25T08:41:28.724Z,101782.61
2023-01-25T08:43:56.184Z,101778.46
2023-01-25T08:46:24.550Z,101778.55
2023-01-25T08:48:57.788Z,101781.44
2023-01-25T08:51:27.642Z,101777.41
2023-01-25T08:53:58.085Z,101780.14
2023-01-25T08:56:24.853Z,101780.08
2023-01-25T08:58:58.407Z,101785.62
2023-01-25T09:01:25.231Z,101787.86
2023-01-25T09:03:54.252Z,101786.31
2023-01-25T09:06:23.165Z,101782.30
2023-01-25T09:08:50.380Z,101782.69
2023-01-25T09:11:20.222Z,101784.06
2023-01-25T09:13:59.697Z,101778.41
2023-01-25T09:16:31.305Z,101780.63
2023-01-25T09:19:00.163Z,101778.73
2023-01-25T09:21:27.455Z,101776.08
2023-01-25T09:24:06.052Z,101779.12
2023-01-25T09:26:36.979Z,101778.86
2023-01-25T09:29:05.377Z,101777.64
2023-01-25T09:31:37.799Z,101783.82
2023-01-25T09:34:24.424Z,101779.14
2023-01-25T09:36:52.319Z,101773.52
2023-01-25T09:39:20.580Z,101776.02
2023-01-25T09:42:13.975Z,101772.61
2023-01-25T09:44:56.449Z,101774.54
2023-01-25T09:47:29.210Z,101766.15
2023-01-25T09:50:19.249Z,101765.13
2023-01-25T09:52:50.605Z,101761.04
2023-01-25T09:55:18.054Z,101760.71
2023-01-25T09:57:45.843Z,101754.45
2023-01-25T10:00:20.012Z,101754.79
2023-01-25T10:03:01.418Z,101751.02
2023-01-25T10:05:37.811Z,101744.45
2023-01-25T10:08:34.087Z,101740.23
2023-01-25T10:11:26.664Z,101738.14
2023-01-25T10:13:56.307Z,101736.83
2023-01-25T10:16:46.913Z,101732.78
2023-01-25T10:19:33.578Z,101718.71
2023-01-25T10:22:05.372Z,101713.95
2023-01-25T10:25:01.491Z,101710.80
2023-01-25T10:27:44.172Z,101703.75
2023-01-25T10:30:38.933Z,101702.02
2023-01-25T10:33:18.710Z,101700.75
2023-01-25T10:35:48.337Z,101696.44
2023-01-25T10:39:37.733Z,101695.59
2023-01-25T10:42:11.337Z,101691.65
2023-01-25T10:44:42.208Z,101686.83
2023-01-25T10:47:12.802Z,101678.48
2023-01-25T10:49:49.717Z,101677.84
2023-01-25T10:52:28.388Z,101678.80
2023-01-25T10:55:19.534Z,101674.06
2023-01-25T10:58:05.954Z,101671.38
2023-01-25T11:00:47.899Z,101667.50
2023-01-25T11:03:42.953Z,101669.02
2023-01-25T11:06:10.776Z,101666.67
2023-01-25T11:12:21.950Z,101654.91
2023-01-25T11:15:26.056Z,101652.29
2023-01-25T11:18:06.483Z,101654.55
2023-01-25T11:20:38.148Z,101651.74
2023-01-25T11:23:26.643Z,101650.09
2023-01-25T11:25:56.862Z,101647.09
2023-01-25T11:28:24.187Z,101644.69
2023-01-25T11:30:51.987Z,101644.39
2023-01-25T11:33:20.195Z,101645.15
2023-01-25T11:36:03.259Z,101646.76
2023-01-25T11:38:57.740Z,101640.44
2023-01-25T11:41:42.973Z,101636.81
2023-01-25T11:44:26.394Z,101631.71
2023-01-25T11:46:59.244Z,101626.48
2023-01-25T11:49:39.248Z,101624.16
2023-01-25T11:52:30.536Z,101625.55
2023-01-25T11:55:06.804Z,101624.08
2023-01-25T11:58:23.159Z,101617.39
2023-01-25T12:01:24.297Z,101623.63
2023-01-25T12:04:41.429Z,101626.10
2023-01-25T12:07:24.528Z,101631.06
2023-01-25T12:10:14.170Z,101626.36
2023-01-25T12:12:55.913Z,101623.68
2023-01-25T12:16:00.585Z,101622.29
2023-01-25T12:18:49.766Z,101612.64
2023-01-25T12:22:01.776Z,101614.42
2023-01-25T12:24:54.637Z,101621.98
2023-01-25T12:27:55.685Z,101623.08
2023-01-25T12:31:02.596Z,101622.47
2023-01-25T12:33:49.692Z,101618.27
2023-01-25T12:36:21.655Z,101617.39
2023-01-25T12:39:10.443Z,101617.44
2023-01-25T12:41:45.243Z,101617.21
2023-01-25T12:44:18.574Z,101615.23
2023-01-25T12:46:51.936Z,101617.97
2023-01-25T12:49:44.303Z,101609.98
2023-01-25T12:52:34.177Z,101607.50
2023-01-25T12:55:04.469Z,101610.34
2023-01-25T12:57:43.015Z,101610.59
2023-01-25T13:00:48.898Z,101605.80
2023-01-25T13:03:25.000Z,101606.45
2023-01-25T13:06:25.477Z,101604.45
2023-01-25T13:09:31.634Z,101605.25
2023-01-25T13:12:00.719Z,101603.89
2023-01-25T13:14:30.353Z,101603.00
2023-01-25T13:17:22.339Z,101603.58
2023-01-25T13:19:52.922Z,101606.02
2023-01-25T13:22:48.083Z,101607.59
2023-01-25T13:25:16.524Z,101602.96
2023-01-25T13:27:44.491Z,101597.33
2023-01-25T13:30:33.606Z,101594.27
2023-01-25T13:33:02.997Z,101587.21
2023-01-25T13:35:38.521Z,101586.30
2023-01-25T13:38:21.795Z,101584.70
2023-01-25T13:41:10.689Z,101581.37
2023-01-25T13:43:39.779Z,101575.56
2023-01-25T13:46:09.432Z,101570.41
2023-01-25T13:48:38.205Z,101571.04
2023-01-25T13:51:08.906Z,101573.80
2023-01-25T13:53:39.416Z,101568.72
2023-01-25T13:56:24.431Z,101568.23
2023-01-25T13:58:53.946Z,101568.13
2023-01-25T14:01:23.146Z,101567.85
2023-01-25T14:03:58.987Z,101565.11
2023-01-25T14:06:39.621Z,101561.83
2023-01-25T14:09:20.516Z,101559.77
2023-01-25T14:11:55.155Z,101561.77
2023-01-25T14:14:33.069Z,101559.21
2023-01-25T14:17:16.618Z,101558.56
2023-01-25T14:19:45.343Z,101561.94
2023-01-25T14:22:24.414Z,101555.27
2023-01-25T14:25:13.490Z,101558.57
2023-01-25T14:28:00.570Z,101557.46
2023-01-25T14:30:31.637Z,101546.30
2023-01-25T14:32:59.802Z,101551.67
2023-01-25T14:35:54.633Z,101544.27
2023-01-25T14:38:44.459Z,101543.94
2023-01-25T14:41:33.592Z,101544.98
2023-01-25T14:44:21.600Z,101547.45
2023-01-25T14:47:31.685Z,101551.17
2023-01-25T14:50:48.035Z,101550.14
2023-01-25T14:53:22.328Z,101556.41
2023-01-25T14:55:52.307Z,101555.57
2023-01-25T14:58:25.704Z,101549.61
2023-01-25T15:01:02.575Z,101548.61
2023-01-25T15:03:35.420Z,101547.95
2023-01-25T15:06:06.570Z,101544.13
2023-01-25T15:08:38.345Z,101546.42
2023-01-25T15:11:59.740Z,101541.78
2023-01-25T15:14:31.604Z,101538.02
2023-01-25T15:17:01.845Z,101540.49
2023-01-25T15:19:34.360Z,101534.95
2023-01-25T15:22:08.637Z,101534.89
2023-01-25T15:24:42.353Z,101537.13
2023-01-25T15:27:18.348Z,101532.33
2023-01-25T15:29:50.566Z,101531.95
2023-01-25T15:32:22.372Z,101534.60
2023-01-25T15:34:53.691Z,101530.88
2023-01-25T15:37:23.797Z,101532.12
2023-01-25T15:45:49.278Z,101524.56
2023-01-25T15:48:45.271Z,101520.23
2023-01-25T15:51:14.220Z,101516.20
2023-01-25T15:53:42.244Z,101518.66
2023-01-25T15:56:15.281Z,101517.89
2023-01-25T15:58:45.918Z,101519.27
2023-01-25T16:01:13.992Z,101512.82
2023-01-25T16:03:42.515Z,101513.04
2023-01-25T16:06:21.171Z,101509.33
2023-01-25T16:08:49.330Z,101514.06
2023-01-25T16:11:18.187Z,101515.73
2023-01-25T16:13:46.253Z,101511.83
2023-01-25T16:16:19.890Z,101513.02
2023-01-25T16:18:48.087Z,101514.54
2023-01-25T16:21:16.392Z,101514.66
2023-01-25T16:23:44.908Z,101508.86
2023-01-25T16:26:21.298Z,101507.92
2023-01-25T16:28:50.327Z,101513.90
2023-01-25T16:31:31.225Z,101511.64
2023-01-25T16:34:01.239Z,101506.30
2023-01-25T16:36:34.473Z,101511.04
2023-01-25T16:39:08.645Z,101504.92
2023-01-25T16:41:37.162Z,101504.19
2023-01-25T16:44:05.160Z,101506.88
2023-01-25T16:46:34.085Z,101502.66
2023-01-25T16:49:05.085Z,101500.11
2023-01-25T16:51:33.305Z,101500.23
2023-01-25T16:54:01.394Z,101501.52
2023-01-25T16:56:32.186Z,101497.05
2023-01-25T16:59:02.317Z,101499.56
2023-01-25T17:12:00.482Z,101498.17
2023-01-25T17:14:28.686Z,101496.41
2023-01-25T17:27:17.328Z,101494.26
2023-01-25T17:29:46.094Z,101493.84
2023-01-25T17:32:14.089Z,101491.71
2023-01-25T17:34:42.832Z,101492.36
2023-01-25T17:37:10.797Z,101488.86
